Buje, Croatia
Current Conditions -  °F | °C
As of 8:30 AM on Wednesday 28 Jan 2015 (Local Time) from LJPZ Reporting Station
Clear Clear  
Wind Chill: 34°   Ceiling: Unl
Heat Index: 39°   Visibility: 6mi
Dew Point: 21°   Wind: 8mph
Humidity: 49%   Direction: 80°E
Pressure: 30.03"   Gusts: NA
Location:  45.42°N, 13.67°E
Report Text: LJPZ 280630Z 08007KT CAVOK 04/M06 Q1017
Loading
Personal Weather Stations






























Interactive Weather Map New forecast layout! Learn more

10-Day Weather Forecast

Advertisements
Track Severe Weather on mobile